sensor_id;sensor_type;location;lat;lon;timestamp;P1;durP1;ratioP1;P2;durP2;ratioP2
29044;SDS011;16133;49.486;12.176;2023-12-20T00:01:28;21.13;;;9.45;;
29044;SDS011;16133;49.486;12.176;2023-12-20T00:03:54;14.50;;;8.55;;
29044;SDS011;16133;49.486;12.176;2023-12-20T00:06:19;18.17;;;9.10;;
29044;SDS011;16133;49.486;12.176;2023-12-20T00:08:45;16.63;;;8.73;;
29044;SDS011;16133;49.486;12.176;2023-12-20T00:11:10;17.40;;;8.90;;
29044;SDS011;16133;49.486;12.176;2023-12-20T00:13:35;16.95;;;9.18;;
29044;SDS011;16133;49.486;12.176;2023-12-20T00:16:01;17.13;;;9.85;;
29044;SDS011;16133;49.486;12.176;2023-12-20T00:18:32;17.70;;;8.63;;
29044;SDS011;16133;49.486;12.176;2023-12-20T00:20:58;16.23;;;8.35;;
29044;SDS011;16133;49.486;12.176;2023-12-20T00:23:23;16.02;;;8.52;;
29044;SDS011;16133;49.486;12.176;2023-12-20T00:25:48;16.65;;;8.40;;
29044;SDS011;16133;49.486;12.176;2023-12-20T00:28:14;16.77;;;8.63;;
29044;SDS011;16133;49.486;12.176;2023-12-20T00:30:39;14.85;;;8.00;;
29044;SDS011;16133;49.486;12.176;2023-12-20T00:33:05;16.23;;;7.63;;
29044;SDS011;16133;49.486;12.176;2023-12-20T00:35:30;14.68;;;7.78;;
29044;SDS011;16133;49.486;12.176;2023-12-20T00:37:55;13.70;;;8.70;;
29044;SDS011;16133;49.486;12.176;2023-12-20T00:40:21;14.57;;;8.20;;
29044;SDS011;16133;49.486;12.176;2023-12-20T00:42:47;15.07;;;8.07;;
29044;SDS011;16133;49.486;12.176;2023-12-20T00:45:12;18.35;;;9.18;;
29044;SDS011;16133;49.486;12.176;2023-12-20T00:47:39;19.90;;;8.93;;
29044;SDS011;16133;49.486;12.176;2023-12-20T00:50:05;19.80;;;9.57;;
29044;SDS011;16133;49.486;12.176;2023-12-20T00:52:31;18.15;;;9.25;;
29044;SDS011;16133;49.486;12.176;2023-12-20T00:54:56;17.52;;;9.20;;
29044;SDS011;16133;49.486;12.176;2023-12-20T00:57:21;15.15;;;8.35;;
29044;SDS011;16133;49.486;12.176;2023-12-20T00:59:48;16.58;;;8.63;;
29044;SDS011;16133;49.486;12.176;2023-12-20T01:02:13;13.27;;;7.93;;
29044;SDS011;16133;49.486;12.176;2023-12-20T01:04:39;15.57;;;8.23;;
29044;SDS011;16133;49.486;12.176;2023-12-20T01:07:04;19.52;;;8.23;;
29044;SDS011;16133;49.486;12.176;2023-12-20T01:09:29;17.55;;;9.48;;
29044;SDS011;16133;49.486;12.176;2023-12-20T01:11:55;18.33;;;9.02;;
29044;SDS011;16133;49.486;12.176;2023-12-20T01:14:20;19.77;;;9.35;;
29044;SDS011;16133;49.486;12.176;2023-12-20T01:16:45;22.95;;;9.40;;
29044;SDS011;16133;49.486;12.176;2023-12-20T01:19:12;16.23;;;9.15;;
29044;SDS011;16133;49.486;12.176;2023-12-20T01:21:39;16.95;;;8.73;;
29044;SDS011;16133;49.486;12.176;2023-12-20T01:24:04;15.48;;;8.13;;
29044;SDS011;16133;49.486;12.176;2023-12-20T01:26:30;20.02;;;8.65;;
29044;SDS011;16133;49.486;12.176;2023-12-20T01:28:55;20.08;;;9.80;;
29044;SDS011;16133;49.486;12.176;2023-12-20T01:31:20;15.57;;;9.05;;
29044;SDS011;16133;49.486;12.176;2023-12-20T01:33:46;21.20;;;10.00;;
29044;SDS011;16133;49.486;12.176;2023-12-20T01:36:11;20.40;;;8.52;;
29044;SDS011;16133;49.486;12.176;2023-12-20T01:38:37;16.75;;;9.02;;
29044;SDS011;16133;49.486;12.176;2023-12-20T01:41:02;20.35;;;10.00;;
29044;SDS011;16133;49.486;12.176;2023-12-20T01:43:29;19.67;;;9.82;;
29044;SDS011;16133;49.486;12.176;2023-12-20T01:45:55;16.65;;;9.30;;
29044;SDS011;16133;49.486;12.176;2023-12-20T01:48:22;18.60;;;9.50;;
29044;SDS011;16133;49.486;12.176;2023-12-20T01:50:48;16.05;;;8.70;;
29044;SDS011;16133;49.486;12.176;2023-12-20T01:53:14;16.25;;;8.60;;
29044;SDS011;16133;49.486;12.176;2023-12-20T01:55:40;16.00;;;8.90;;
29044;SDS011;16133;49.486;12.176;2023-12-20T01:58:07;18.77;;;9.13;;
29044;SDS011;16133;49.486;12.176;2023-12-20T02:00:34;18.65;;;9.55;;
29044;SDS011;16133;49.486;12.176;2023-12-20T02:03:03;16.95;;;8.90;;
29044;SDS011;16133;49.486;12.176;2023-12-20T02:05:33;19.92;;;8.90;;
29044;SDS011;16133;49.486;12.176;2023-12-20T02:08:00;20.42;;;11.02;;
29044;SDS011;16133;49.486;12.176;2023-12-20T02:10:25;18.02;;;9.02;;
29044;SDS011;16133;49.486;12.176;2023-12-20T02:12:51;21.48;;;9.50;;
29044;SDS011;16133;49.486;12.176;2023-12-20T02:15:16;17.95;;;9.60;;
29044;SDS011;16133;49.486;12.176;2023-12-20T02:17:42;17.75;;;8.80;;
29044;SDS011;16133;49.486;12.176;2023-12-20T02:20:08;18.30;;;9.10;;
29044;SDS011;16133;49.486;12.176;2023-12-20T02:22:34;16.02;;;9.25;;
29044;SDS011;16133;49.486;12.176;2023-12-20T02:24:59;17.25;;;8.95;;
29044;SDS011;16133;49.486;12.176;2023-12-20T02:27:25;17.25;;;8.52;;
29044;SDS011;16133;49.486;12.176;2023-12-20T02:29:50;18.38;;;9.80;;
29044;SDS011;16133;49.486;12.176;2023-12-20T02:32:16;19.25;;;9.35;;
29044;SDS011;16133;49.486;12.176;2023-12-20T02:34:43;16.60;;;8.93;;
29044;SDS011;16133;49.486;12.176;2023-12-20T02:37:08;18.25;;;9.50;;
29044;SDS011;16133;49.486;12.176;2023-12-20T02:39:33;18.10;;;9.20;;
29044;SDS011;16133;49.486;12.176;2023-12-20T02:41:59;18.83;;;9.48;;
29044;SDS011;16133;49.486;12.176;2023-12-20T02:44:24;15.90;;;8.85;;
29044;SDS011;16133;49.486;12.176;2023-12-20T02:46:53;17.65;;;9.50;;
29044;SDS011;16133;49.486;12.176;2023-12-20T02:49:18;15.50;;;8.63;;
29044;SDS011;16133;49.486;12.176;2023-12-20T02:51:43;18.17;;;8.65;;
29044;SDS011;16133;49.486;12.176;2023-12-20T02:54:09;19.77;;;9.18;;
29044;SDS011;16133;49.486;12.176;2023-12-20T02:56:34;20.67;;;10.07;;
29044;SDS011;16133;49.486;12.176;2023-12-20T02:59:00;21.75;;;10.02;;
29044;SDS011;16133;49.486;12.176;2023-12-20T03:01:26;18.02;;;9.48;;
29044;SDS011;16133;49.486;12.176;2023-12-20T03:03:51;17.00;;;8.98;;
29044;SDS011;16133;49.486;12.176;2023-12-20T03:06:17;17.60;;;9.57;;
29044;SDS011;16133;49.486;12.176;2023-12-20T03:08:43;17.85;;;9.18;;
29044;SDS011;16133;49.486;12.176;2023-12-20T03:11:09;19.70;;;10.10;;
29044;SDS011;16133;49.486;12.176;2023-12-20T03:13:34;16.65;;;8.50;;
29044;SDS011;16133;49.486;12.176;2023-12-20T03:16:00;16.15;;;8.88;;
29044;SDS011;16133;49.486;12.176;2023-12-20T03:18:25;18.55;;;9.07;;
29044;SDS011;16133;49.486;12.176;2023-12-20T03:20:53;19.95;;;9.30;;
29044;SDS011;16133;49.486;12.176;2023-12-20T03:23:18;16.60;;;8.32;;
29044;SDS011;16133;49.486;12.176;2023-12-20T03:25:43;16.38;;;8.50;;
29044;SDS011;16133;49.486;12.176;2023-12-20T03:28:09;14.52;;;7.43;;
29044;SDS011;16133;49.486;12.176;2023-12-20T03:30:34;11.75;;;6.82;;
29044;SDS011;16133;49.486;12.176;2023-12-20T03:32:59;21.83;;;8.35;;
29044;SDS011;16133;49.486;12.176;2023-12-20T03:35:25;15.10;;;7.68;;
29044;SDS011;16133;49.486;12.176;2023-12-20T03:37:50;16.33;;;7.57;;
29044;SDS011;16133;49.486;12.176;2023-12-20T03:40:15;12.55;;;7.20;;
29044;SDS011;16133;49.486;12.176;2023-12-20T03:42:41;14.88;;;7.35;;
29044;SDS011;16133;49.486;12.176;2023-12-20T03:45:06;14.05;;;7.07;;
29044;SDS011;16133;49.486;12.176;2023-12-20T03:47:32;13.70;;;6.88;;
29044;SDS011;16133;49.486;12.176;2023-12-20T03:49:57;14.77;;;7.28;;
29044;SDS011;16133;49.486;12.176;2023-12-20T03:52:23;10.13;;;6.07;;
29044;SDS011;16133;49.486;12.176;2023-12-20T03:54:48;13.00;;;6.43;;
29044;SDS011;16133;49.486;12.176;2023-12-20T03:57:13;13.75;;;5.95;;
29044;SDS011;16133;49.486;12.176;2023-12-20T03:59:39;10.95;;;5.63;;
29044;SDS011;16133;49.486;12.176;2023-12-20T04:02:04;11.48;;;5.70;;
29044;SDS011;16133;49.486;12.176;2023-12-20T04:04:30;9.77;;;5.32;;
29044;SDS011;16133;49.486;12.176;2023-12-20T04:06:55;7.07;;;3.67;;
29044;SDS011;16133;49.486;12.176;2023-12-20T04:09:20;5.38;;;2.55;;
29044;SDS011;16133;49.486;12.176;2023-12-20T04:11:46;4.50;;;1.80;;
29044;SDS011;16133;49.486;12.176;2023-12-20T04:14:11;3.22;;;1.33;;
29044;SDS011;16133;49.486;12.176;2023-12-20T04:16:36;2.35;;;1.38;;
29044;SDS011;16133;49.486;12.176;2023-12-20T04:19:02;1.25;;;0.73;;
29044;SDS011;16133;49.486;12.176;2023-12-20T04:21:27;1.92;;;1.00;;
29044;SDS011;16133;49.486;12.176;2023-12-20T04:23:53;1.08;;;0.60;;
29044;SDS011;16133;49.486;12.176;2023-12-20T04:26:18;0.60;;;0.50;;
29044;SDS011;16133;49.486;12.176;2023-12-20T04:28:43;1.02;;;0.50;;
29044;SDS011;16133;49.486;12.176;2023-12-20T04:31:09;0.30;;;0.30;;
29044;SDS011;16133;49.486;12.176;2023-12-20T04:33:34;0.73;;;0.40;;
29044;SDS011;16133;49.486;12.176;2023-12-20T04:35:59;0.43;;;0.32;;
29044;SDS011;16133;49.486;12.176;2023-12-20T04:38:25;0.98;;;0.70;;
29044;SDS011;16133;49.486;12.176;2023-12-20T04:40:51;0.82;;;0.68;;
29044;SDS011;16133;49.486;12.176;2023-12-20T04:43:17;1.05;;;0.60;;
29044;SDS011;16133;49.486;12.176;2023-12-20T04:45:42;0.50;;;0.50;;
29044;SDS011;16133;49.486;12.176;2023-12-20T04:48:07;0.52;;;0.30;;
29044;SDS011;16133;49.486;12.176;2023-12-20T04:50:33;1.15;;;0.60;;
29044;SDS011;16133;49.486;12.176;2023-12-20T04:52:58;0.40;;;0.40;;
29044;SDS011;16133;49.486;12.176;2023-12-20T04:55:24;0.40;;;0.30;;
29044;SDS011;16133;49.486;12.176;2023-12-20T04:57:49;0.30;;;0.30;;
29044;SDS011;16133;49.486;12.176;2023-12-20T05:00:14;0.20;;;0.20;;
29044;SDS011;16133;49.486;12.176;2023-12-20T05:02:40;0.73;;;0.30;;
29044;SDS011;16133;49.486;12.176;2023-12-20T05:05:06;0.50;;;0.40;;
29044;SDS011;16133;49.486;12.176;2023-12-20T05:07:32;0.30;;;0.22;;
29044;SDS011;16133;49.486;12.176;2023-12-20T05:09:58;0.40;;;0.40;;
29044;SDS011;16133;49.486;12.176;2023-12-20T05:12:23;0.88;;;0.57;;
29044;SDS011;16133;49.486;12.176;2023-12-20T05:14:48;0.90;;;0.60;;
29044;SDS011;16133;49.486;12.176;2023-12-20T05:17:14;2.25;;;0.93;;
29044;SDS011;16133;49.486;12.176;2023-12-20T05:19:39;2.22;;;1.33;;
29044;SDS011;16133;49.486;12.176;2023-12-20T05:22:05;0.85;;;0.60;;
29044;SDS011;16133;49.486;12.176;2023-12-20T05:24:30;1.30;;;1.00;;
29044;SDS011;16133;49.486;12.176;2023-12-20T05:26:55;1.75;;;0.90;;
29044;SDS011;16133;49.486;12.176;2023-12-20T05:29:21;1.73;;;1.20;;
29044;SDS011;16133;49.486;12.176;2023-12-20T05:31:46;2.58;;;1.50;;
29044;SDS011;16133;49.486;12.176;2023-12-20T05:34:11;1.55;;;1.10;;
29044;SDS011;16133;49.486;12.176;2023-12-20T05:36:37;1.65;;;0.70;;
29044;SDS011;16133;49.486;12.176;2023-12-20T05:39:03;1.27;;;0.70;;
29044;SDS011;16133;49.486;12.176;2023-12-20T05:41:29;1.38;;;0.70;;
29044;SDS011;16133;49.486;12.176;2023-12-20T05:43:55;1.63;;;0.65;;
29044;SDS011;16133;49.486;12.176;2023-12-20T05:46:22;1.02;;;0.60;;
29044;SDS011;16133;49.486;12.176;2023-12-20T05:48:48;1.00;;;0.65;;
29044;SDS011;16133;49.486;12.176;2023-12-20T05:51:14;1.35;;;0.98;;
29044;SDS011;16133;49.486;12.176;2023-12-20T05:53:39;2.35;;;1.20;;
29044;SDS011;16133;49.486;12.176;2023-12-20T05:56:04;0.90;;;0.85;;
29044;SDS011;16133;49.486;12.176;2023-12-20T05:58:30;1.15;;;0.90;;
29044;SDS011;16133;49.486;12.176;2023-12-20T06:00:57;1.48;;;0.95;;
29044;SDS011;16133;49.486;12.176;2023-12-20T06:03:22;1.13;;;0.90;;
29044;SDS011;16133;49.486;12.176;2023-12-20T06:05:48;1.05;;;0.80;;
29044;SDS011;16133;49.486;12.176;2023-12-20T06:08:13;1.50;;;0.90;;
29044;SDS011;16133;49.486;12.176;2023-12-20T06:10:39;2.30;;;0.70;;
29044;SDS011;16133;49.486;12.176;2023-12-20T06:13:05;0.93;;;0.82;;
29044;SDS011;16133;49.486;12.176;2023-12-20T06:15:31;1.25;;;0.80;;
29044;SDS011;16133;49.486;12.176;2023-12-20T06:17:57;1.63;;;0.90;;
29044;SDS011;16133;49.486;12.176;2023-12-20T06:20:23;0.95;;;0.80;;
29044;SDS011;16133;49.486;12.176;2023-12-20T06:22:48;1.83;;;0.95;;
29044;SDS011;16133;49.486;12.176;2023-12-20T06:25:14;1.20;;;1.00;;
29044;SDS011;16133;49.486;12.176;2023-12-20T06:27:39;1.02;;;0.93;;
29044;SDS011;16133;49.486;12.176;2023-12-20T06:30:06;2.10;;;1.00;;
29044;SDS011;16133;49.486;12.176;2023-12-20T06:32:32;1.00;;;0.82;;
29044;SDS011;16133;49.486;12.176;2023-12-20T06:34:59;1.33;;;0.88;;
29044;SDS011;16133;49.486;12.176;2023-12-20T06:37:24;1.67;;;1.02;;
29044;SDS011;16133;49.486;12.176;2023-12-20T06:39:50;1.27;;;1.17;;
29044;SDS011;16133;49.486;12.176;2023-12-20T06:42:15;1.90;;;0.98;;
29044;SDS011;16133;49.486;12.176;2023-12-20T06:44:40;2.33;;;1.13;;
29044;SDS011;16133;49.486;12.176;2023-12-20T06:47:06;2.00;;;1.27;;
29044;SDS011;16133;49.486;12.176;2023-12-20T06:49:31;1.10;;;0.80;;
29044;SDS011;16133;49.486;12.176;2023-12-20T06:51:57;1.58;;;1.10;;
29044;SDS011;16133;49.486;12.176;2023-12-20T06:54:22;1.05;;;0.80;;
29044;SDS011;16133;49.486;12.176;2023-12-20T06:56:47;0.98;;;0.80;;
29044;SDS011;16133;49.486;12.176;2023-12-20T06:59:13;1.85;;;1.15;;
29044;SDS011;16133;49.486;12.176;2023-12-20T07:01:38;1.45;;;1.00;;
29044;SDS011;16133;49.486;12.176;2023-12-20T07:04:03;2.15;;;1.50;;
29044;SDS011;16133;49.486;12.176;2023-12-20T07:06:29;3.22;;;1.40;;
29044;SDS011;16133;49.486;12.176;2023-12-20T07:08:54;1.33;;;1.20;;
29044;SDS011;16133;49.486;12.176;2023-12-20T07:11:19;1.50;;;1.20;;
29044;SDS011;16133;49.486;12.176;2023-12-20T07:13:45;2.05;;;1.85;;
29044;SDS011;16133;49.486;12.176;2023-12-20T07:16:10;2.25;;;1.20;;
29044;SDS011;16133;49.486;12.176;2023-12-20T07:18:36;1.23;;;1.13;;
29044;SDS011;16133;49.486;12.176;2023-12-20T07:21:01;2.42;;;1.20;;
29044;SDS011;16133;49.486;12.176;2023-12-20T07:23:27;1.65;;;1.52;;
29044;SDS011;16133;49.486;12.176;2023-12-20T07:25:52;2.80;;;2.00;;
29044;SDS011;16133;49.486;12.176;2023-12-20T07:28:17;2.75;;;1.65;;
29044;SDS011;16133;49.486;12.176;2023-12-20T07:30:43;5.18;;;2.10;;
29044;SDS011;16133;49.486;12.176;2023-12-20T07:33:08;2.10;;;1.70;;
29044;SDS011;16133;49.486;12.176;2023-12-20T07:35:34;3.30;;;2.40;;
29044;SDS011;16133;49.486;12.176;2023-12-20T07:38:00;3.28;;;2.03;;
29044;SDS011;16133;49.486;12.176;2023-12-20T07:40:25;3.30;;;2.30;;
29044;SDS011;16133;49.486;12.176;2023-12-20T07:42:50;1.98;;;1.75;;
29044;SDS011;16133;49.486;12.176;2023-12-20T07:45:16;1.63;;;1.52;;
29044;SDS011;16133;49.486;12.176;2023-12-20T07:47:41;5.43;;;2.53;;
29044;SDS011;16133;49.486;12.176;2023-12-20T07:50:07;3.83;;;2.30;;
29044;SDS011;16133;49.486;12.176;2023-12-20T07:52:32;2.70;;;1.90;;
29044;SDS011;16133;49.486;12.176;2023-12-20T07:54:57;3.13;;;2.55;;
29044;SDS011;16133;49.486;12.176;2023-12-20T07:57:23;2.53;;;1.98;;
29044;SDS011;16133;49.486;12.176;2023-12-20T07:59:48;3.72;;;2.75;;
29044;SDS011;16133;49.486;12.176;2023-12-20T08:02:14;3.20;;;2.70;;
29044;SDS011;16133;49.486;12.176;2023-12-20T08:04:39;2.30;;;1.98;;
29044;SDS011;16133;49.486;12.176;2023-12-20T08:07:05;2.60;;;1.90;;
29044;SDS011;16133;49.486;12.176;2023-12-20T08:09:31;3.78;;;2.63;;
29044;SDS011;16133;49.486;12.176;2023-12-20T08:11:58;3.80;;;2.10;;
29044;SDS011;16133;49.486;12.176;2023-12-20T08:14:24;2.70;;;2.22;;
29044;SDS011;16133;49.486;12.176;2023-12-20T08:16:50;3.08;;;2.42;;
29044;SDS011;16133;49.486;12.176;2023-12-20T08:19:16;6.20;;;2.45;;
29044;SDS011;16133;49.486;12.176;2023-12-20T08:21:42;4.13;;;2.10;;
29044;SDS011;16133;49.486;12.176;2023-12-20T08:24:07;3.50;;;2.42;;
29044;SDS011;16133;49.486;12.176;2023-12-20T08:26:33;6.28;;;3.03;;
29044;SDS011;16133;49.486;12.176;2023-12-20T08:28:59;4.40;;;3.20;;
29044;SDS011;16133;49.486;12.176;2023-12-20T08:31:24;3.33;;;2.25;;
29044;SDS011;16133;49.486;12.176;2023-12-20T08:33:49;3.95;;;3.10;;
29044;SDS011;16133;49.486;12.176;2023-12-20T08:36:15;3.78;;;2.80;;
29044;SDS011;16133;49.486;12.176;2023-12-20T08:38:42;4.10;;;2.45;;
29044;SDS011;16133;49.486;12.176;2023-12-20T08:41:08;8.93;;;2.95;;
29044;SDS011;16133;49.486;12.176;2023-12-20T08:43:34;4.90;;;2.55;;
29044;SDS011;16133;49.486;12.176;2023-12-20T08:46:00;3.53;;;2.50;;
29044;SDS011;16133;49.486;12.176;2023-12-20T08:48:25;5.28;;;2.78;;
29044;SDS011;16133;49.486;12.176;2023-12-20T08:50:50;3.67;;;2.50;;
29044;SDS011;16133;49.486;12.176;2023-12-20T08:53:17;4.55;;;2.97;;
29044;SDS011;16133;49.486;12.176;2023-12-20T08:55:43;3.45;;;2.50;;
29044;SDS011;16133;49.486;12.176;2023-12-20T08:58:09;5.30;;;2.70;;
29044;SDS011;16133;49.486;12.176;2023-12-20T09:00:35;3.70;;;2.58;;
29044;SDS011;16133;49.486;12.176;2023-12-20T09:03:03;4.88;;;3.15;;
29044;SDS011;16133;49.486;12.176;2023-12-20T09:05:28;4.65;;;2.58;;
29044;SDS011;16133;49.486;12.176;2023-12-20T09:07:55;3.95;;;2.40;;
29044;SDS011;16133;49.486;12.176;2023-12-20T09:10:20;5.68;;;2.70;;
29044;SDS011;16133;49.486;12.176;2023-12-20T09:12:53;4.15;;;2.30;;
29044;SDS011;16133;49.486;12.176;2023-12-20T09:15:22;3.47;;;2.38;;
29044;SDS011;16133;49.486;12.176;2023-12-20T09:17:50;3.63;;;2.58;;
29044;SDS011;16133;49.486;12.176;2023-12-20T09:20:16;2.97;;;2.25;;
29044;SDS011;16133;49.486;12.176;2023-12-20T09:22:41;3.95;;;2.20;;
29044;SDS011;16133;49.486;12.176;2023-12-20T09:25:07;2.85;;;2.00;;
29044;SDS011;16133;49.486;12.176;2023-12-20T09:27:33;2.55;;;1.73;;
29044;SDS011;16133;49.486;12.176;2023-12-20T09:29:58;3.25;;;2.30;;
29044;SDS011;16133;49.486;12.176;2023-12-20T09:32:24;4.00;;;2.53;;
29044;SDS011;16133;49.486;12.176;2023-12-20T09:34:49;3.10;;;2.45;;
29044;SDS011;16133;49.486;12.176;2023-12-20T09:37:14;4.28;;;2.53;;
29044;SDS011;16133;49.486;12.176;2023-12-20T09:39:40;3.40;;;2.45;;
29044;SDS011;16133;49.486;12.176;2023-12-20T09:42:06;3.30;;;2.50;;
29044;SDS011;16133;49.486;12.176;2023-12-20T09:44:32;3.85;;;2.60;;
29044;SDS011;16133;49.486;12.176;2023-12-20T09:47:01;6.55;;;2.10;;
29044;SDS011;16133;49.486;12.176;2023-12-20T09:49:28;4.43;;;2.35;;
29044;SDS011;16133;49.486;12.176;2023-12-20T09:51:55;2.03;;;1.83;;
29044;SDS011;16133;49.486;12.176;2023-12-20T09:54:21;3.22;;;1.75;;
29044;SDS011;16133;49.486;12.176;2023-12-20T09:56:48;2.40;;;1.70;;
29044;SDS011;16133;49.486;12.176;2023-12-20T09:59:14;2.33;;;1.98;;
29044;SDS011;16133;49.486;12.176;2023-12-20T10:01:40;2.88;;;2.05;;
29044;SDS011;16133;49.486;12.176;2023-12-20T10:04:07;2.55;;;1.80;;
29044;SDS011;16133;49.486;12.176;2023-12-20T10:06:37;2.95;;;2.22;;
29044;SDS011;16133;49.486;12.176;2023-12-20T10:09:05;2.25;;;1.70;;
29044;SDS011;16133;49.486;12.176;2023-12-20T10:11:31;3.17;;;2.20;;
29044;SDS011;16133;49.486;12.176;2023-12-20T10:14:00;2.40;;;1.60;;
29044;SDS011;16133;49.486;12.176;2023-12-20T10:16:26;2.20;;;1.40;;
29044;SDS011;16133;49.486;12.176;2023-12-20T10:18:55;2.08;;;1.50;;
29044;SDS011;16133;49.486;12.176;2023-12-20T10:21:24;3.13;;;1.30;;
29044;SDS011;16133;49.486;12.176;2023-12-20T10:23:53;1.27;;;1.00;;
29044;SDS011;16133;49.486;12.176;2023-12-20T10:26:20;4.85;;;1.70;;
29044;SDS011;16133;49.486;12.176;2023-12-20T10:28:46;2.75;;;1.77;;
29044;SDS011;16133;49.486;12.176;2023-12-20T10:31:36;3.53;;;1.75;;
29044;SDS011;16133;49.486;12.176;2023-12-20T10:34:02;2.58;;;1.50;;
29044;SDS011;16133;49.486;12.176;2023-12-20T10:36:29;3.67;;;1.60;;
29044;SDS011;16133;49.486;12.176;2023-12-20T10:38:55;4.78;;;1.92;;
29044;SDS011;16133;49.486;12.176;2023-12-20T10:41:26;3.85;;;1.60;;
29044;SDS011;16133;49.486;12.176;2023-12-20T10:44:00;5.53;;;1.80;;
29044;SDS011;16133;49.486;12.176;2023-12-20T10:46:27;3.90;;;1.50;;
29044;SDS011;16133;49.486;12.176;2023-12-20T10:48:54;2.90;;;1.90;;
29044;SDS011;16133;49.486;12.176;2023-12-20T10:51:20;2.67;;;1.45;;
29044;SDS011;16133;49.486;12.176;2023-12-20T10:53:48;3.58;;;1.85;;
29044;SDS011;16133;49.486;12.176;2023-12-20T10:56:15;3.33;;;1.65;;
29044;SDS011;16133;49.486;12.176;2023-12-20T10:58:43;3.92;;;1.70;;
29044;SDS011;16133;49.486;12.176;2023-12-20T11:01:09;4.57;;;1.65;;
29044;SDS011;16133;49.486;12.176;2023-12-20T11:03:38;2.15;;;1.58;;
29044;SDS011;16133;49.486;12.176;2023-12-20T11:06:19;2.38;;;1.58;;
29044;SDS011;16133;49.486;12.176;2023-12-20T11:11:49;4.95;;;1.80;;
29044;SDS011;16133;49.486;12.176;2023-12-20T11:14:30;2.92;;;1.50;;
29044;SDS011;16133;49.486;12.176;2023-12-20T11:17:08;2.22;;;1.10;;
29044;SDS011;16133;49.486;12.176;2023-12-20T11:22:21;3.00;;;2.00;;
29044;SDS011;16133;49.486;12.176;2023-12-20T11:24:51;4.70;;;1.42;;
29044;SDS011;16133;49.486;12.176;2023-12-20T11:27:18;3.08;;;1.90;;
29044;SDS011;16133;49.486;12.176;2023-12-20T11:29:51;4.45;;;1.77;;
29044;SDS011;16133;49.486;12.176;2023-12-20T11:34:53;4.20;;;2.33;;
29044;SDS011;16133;49.486;12.176;2023-12-20T11:37:29;2.42;;;1.40;;
29044;SDS011;16133;49.486;12.176;2023-12-20T11:40:00;4.25;;;2.05;;
29044;SDS011;16133;49.486;12.176;2023-12-20T11:42:29;5.28;;;2.28;;
29044;SDS011;16133;49.486;12.176;2023-12-20T11:44:59;73.10;;;28.58;;
29044;SDS011;16133;49.486;12.176;2023-12-20T11:47:24;78.45;;;32.75;;
29044;SDS011;16133;49.486;12.176;2023-12-20T11:49:50;19.75;;;11.77;;
29044;SDS011;16133;49.486;12.176;2023-12-20T11:52:16;10.63;;;7.10;;
29044;SDS011;16133;49.486;12.176;2023-12-20T11:54:41;10.98;;;8.95;;
29044;SDS011;16133;49.486;12.176;2023-12-20T11:57:07;9.52;;;5.03;;
29044;SDS011;16133;49.486;12.176;2023-12-20T11:59:32;5.20;;;2.55;;
29044;SDS011;16133;49.486;12.176;2023-12-20T12:01:58;7.50;;;2.30;;
29044;SDS011;16133;49.486;12.176;2023-12-20T12:04:26;8.13;;;3.10;;
29044;SDS011;16133;49.486;12.176;2023-12-20T12:06:52;7.60;;;3.22;;
29044;SDS011;16133;49.486;12.176;2023-12-20T12:09:17;11.95;;;3.60;;
29044;SDS011;16133;49.486;12.176;2023-12-20T12:11:42;8.77;;;3.33;;
29044;SDS011;16133;49.486;12.176;2023-12-20T12:14:08;11.20;;;3.03;;
29044;SDS011;16133;49.486;12.176;2023-12-20T12:16:34;5.30;;;2.63;;
29044;SDS011;16133;49.486;12.176;2023-12-20T12:18:59;5.40;;;1.98;;
29044;SDS011;16133;49.486;12.176;2023-12-20T12:21:25;4.10;;;2.50;;
29044;SDS011;16133;49.486;12.176;2023-12-20T12:23:51;6.85;;;2.83;;
29044;SDS011;16133;49.486;12.176;2023-12-20T12:26:16;9.73;;;2.70;;
29044;SDS011;16133;49.486;12.176;2023-12-20T12:28:42;3.70;;;2.63;;
29044;SDS011;16133;49.486;12.176;2023-12-20T12:31:08;7.00;;;2.45;;
29044;SDS011;16133;49.486;12.176;2023-12-20T12:33:40;3.80;;;2.08;;
29044;SDS011;16133;49.486;12.176;2023-12-20T12:36:06;7.75;;;2.53;;
29044;SDS011;16133;49.486;12.176;2023-12-20T12:38:32;7.38;;;2.10;;
29044;SDS011;16133;49.486;12.176;2023-12-20T12:40:59;6.72;;;2.70;;
29044;SDS011;16133;49.486;12.176;2023-12-20T12:43:25;4.85;;;2.08;;
29044;SDS011;16133;49.486;12.176;2023-12-20T12:45:50;5.97;;;2.65;;
29044;SDS011;16133;49.486;12.176;2023-12-20T12:48:16;6.07;;;2.47;;
29044;SDS011;16133;49.486;12.176;2023-12-20T12:50:41;3.70;;;2.80;;
29044;SDS011;16133;49.486;12.176;2023-12-20T12:53:07;5.80;;;3.85;;
29044;SDS011;16133;49.486;12.176;2023-12-20T12:55:32;5.40;;;2.28;;
29044;SDS011;16133;49.486;12.176;2023-12-20T12:57:58;3.78;;;2.08;;
29044;SDS011;16133;49.486;12.176;2023-12-20T13:00:24;9.20;;;4.05;;
29044;SDS011;16133;49.486;12.176;2023-12-20T13:02:51;7.07;;;2.50;;
29044;SDS011;16133;49.486;12.176;2023-12-20T13:05:16;8.50;;;2.63;;
29044;SDS011;16133;49.486;12.176;2023-12-20T13:07:42;6.20;;;2.22;;
29044;SDS011;16133;49.486;12.176;2023-12-20T13:10:10;6.00;;;3.22;;
29044;SDS011;16133;49.486;12.176;2023-12-20T13:12:35;4.15;;;1.38;;
29044;SDS011;16133;49.486;12.176;2023-12-20T13:15:01;8.27;;;3.65;;
29044;SDS011;16133;49.486;12.176;2023-12-20T13:17:28;11.75;;;3.10;;
29044;SDS011;16133;49.486;12.176;2023-12-20T13:19:54;5.63;;;2.58;;
29044;SDS011;16133;49.486;12.176;2023-12-20T13:22:20;6.40;;;1.98;;
29044;SDS011;16133;49.486;12.176;2023-12-20T13:24:45;7.55;;;4.05;;
29044;SDS011;16133;49.486;12.176;2023-12-20T13:27:10;7.70;;;2.30;;
29044;SDS011;16133;49.486;12.176;2023-12-20T13:29:36;8.43;;;3.10;;
29044;SDS011;16133;49.486;12.176;2023-12-20T13:32:01;6.03;;;3.17;;
29044;SDS011;16133;49.486;12.176;2023-12-20T13:34:28;7.15;;;3.13;;
29044;SDS011;16133;49.486;12.176;2023-12-20T13:36:54;7.63;;;3.10;;
29044;SDS011;16133;49.486;12.176;2023-12-20T13:39:19;3.88;;;2.13;;
29044;SDS011;16133;49.486;12.176;2023-12-20T13:41:45;8.95;;;3.22;;
29044;SDS011;16133;49.486;12.176;2023-12-20T13:44:10;7.53;;;2.72;;
29044;SDS011;16133;49.486;12.176;2023-12-20T13:46:37;3.33;;;2.38;;
29044;SDS011;16133;49.486;12.176;2023-12-20T13:49:02;8.65;;;3.17;;
29044;SDS011;16133;49.486;12.176;2023-12-20T13:51:28;7.15;;;2.97;;
29044;SDS011;16133;49.486;12.176;2023-12-20T13:53:53;7.07;;;2.72;;
29044;SDS011;16133;49.486;12.176;2023-12-20T13:56:19;8.98;;;3.00;;
29044;SDS011;16133;49.486;12.176;2023-12-20T13:58:45;7.57;;;2.40;;
29044;SDS011;16133;49.486;12.176;2023-12-20T14:01:11;3.53;;;1.98;;
29044;SDS011;16133;49.486;12.176;2023-12-20T14:03:37;4.32;;;1.83;;
29044;SDS011;16133;49.486;12.176;2023-12-20T14:06:02;10.15;;;2.13;;
29044;SDS011;16133;49.486;12.176;2023-12-20T14:08:28;3.67;;;2.00;;
29044;SDS011;16133;49.486;12.176;2023-12-20T14:10:54;6.35;;;1.73;;
29044;SDS011;16133;49.486;12.176;2023-12-20T14:13:19;5.22;;;1.70;;
29044;SDS011;16133;49.486;12.176;2023-12-20T14:15:46;2.13;;;1.50;;
29044;SDS011;16133;49.486;12.176;2023-12-20T14:18:11;8.68;;;2.05;;
29044;SDS011;16133;49.486;12.176;2023-12-20T14:20:39;5.07;;;2.08;;
29044;SDS011;16133;49.486;12.176;2023-12-20T14:23:07;7.60;;;1.92;;
29044;SDS011;16133;49.486;12.176;2023-12-20T14:25:34;5.28;;;2.50;;
29044;SDS011;16133;49.486;12.176;2023-12-20T14:28:02;13.80;;;7.28;;
29044;SDS011;16133;49.486;12.176;2023-12-20T14:30:28;11.13;;;5.15;;
29044;SDS011;16133;49.486;12.176;2023-12-20T14:32:53;7.45;;;2.60;;